createdAt,value
2023-05-10T00:00:26.821Z,2.93
2023-05-10T00:01:48.622Z,2.19
2023-05-10T00:03:10.349Z,2.21
2023-05-10T00:04:32.411Z,2.46
2023-05-10T00:05:54.552Z,2.52
2023-05-10T00:07:16.971Z,2.37
2023-05-10T00:08:38.725Z,2.67
2023-05-10T00:10:00.628Z,2.71
2023-05-10T00:11:23.180Z,3.02
2023-05-10T00:12:46.194Z,2.85
2023-05-10T00:14:07.521Z,3.24
2023-05-10T00:15:29.711Z,3.94
2023-05-10T00:16:51.378Z,3.81
2023-05-10T00:18:13.098Z,3.52
2023-05-10T00:19:34.675Z,3.69
2023-05-10T00:20:56.844Z,3.07
2023-05-10T00:22:18.858Z,2.88
2023-05-10T00:23:40.794Z,2.61
2023-05-10T00:25:02.020Z,3.34
2023-05-10T00:26:23.536Z,3.13
2023-05-10T00:27:44.926Z,3.42
2023-05-10T00:29:06.327Z,3.64
2023-05-10T00:30:28.733Z,3.55
2023-05-10T00:31:50.766Z,3.78
2023-05-10T00:33:13.432Z,3.86
2023-05-10T00:34:35.414Z,3.74
2023-05-10T00:35:57.017Z,3.63
2023-05-10T00:37:18.686Z,2.59
2023-05-10T00:38:41.783Z,3.26
2023-05-10T00:40:04.354Z,3.74
2023-05-10T00:41:26.133Z,3.60
2023-05-10T00:42:47.991Z,4.07
2023-05-10T00:44:11.735Z,3.27
2023-05-10T00:45:33.538Z,4.05
2023-05-10T00:46:55.780Z,3.59
2023-05-10T00:48:17.649Z,3.74
2023-05-10T00:49:38.931Z,3.73
2023-05-10T00:51:03.482Z,4.24
2023-05-10T00:52:26.103Z,3.56
2023-05-10T00:53:48.215Z,3.59
2023-05-10T00:55:10.525Z,3.44
2023-05-10T00:56:32.102Z,4.04
2023-05-10T00:57:54.165Z,4.73
2023-05-10T00:59:19.076Z,4.54
2023-05-10T01:00:43.825Z,4.82
2023-05-10T01:02:05.197Z,5.27
2023-05-10T01:03:28.678Z,4.88
2023-05-10T01:04:50.416Z,4.97
2023-05-10T01:06:12.991Z,4.37
2023-05-10T01:07:35.410Z,5.41
2023-05-10T01:08:57.320Z,4.97
2023-05-10T01:10:18.963Z,4.72
2023-05-10T01:11:40.769Z,5.13
2023-05-10T01:13:02.280Z,5.28
2023-05-10T01:14:24.724Z,5.10
2023-05-10T01:15:47.708Z,4.63
2023-05-10T01:17:09.571Z,4.96
2023-05-10T01:18:36.032Z,4.77
2023-05-10T01:19:57.115Z,4.87
2023-05-10T01:21:34.608Z,5.10
2023-05-10T01:23:25.595Z,4.70
2023-05-10T01:26:14.292Z,4.43
2023-05-10T01:27:45.719Z,4.60
2023-05-10T01:29:11.534Z,4.72
2023-05-10T01:31:13.133Z,6.01
2023-05-10T01:32:50.221Z,5.13
2023-05-10T01:36:59.675Z,5.78
2023-05-10T01:38:50.774Z,5.38
2023-05-10T01:40:23.067Z,4.89
2023-05-10T01:41:54.129Z,5.06
2023-05-10T01:43:19.423Z,4.92
2023-05-10T01:45:02.795Z,5.02
2023-05-10T01:46:29.912Z,5.88
2023-05-10T01:47:53.927Z,5.25
2023-05-10T01:49:27.964Z,4.78
2023-05-10T01:50:50.392Z,5.07
2023-05-10T01:52:13.686Z,5.41
2023-05-10T01:53:35.415Z,5.85
2023-05-10T01:54:59.198Z,6.89
2023-05-10T01:56:21.122Z,5.66
2023-05-10T01:57:44.477Z,5.19
2023-05-10T02:00:28.696Z,5.87
2023-05-10T02:01:50.728Z,6.14
2023-05-10T02:03:12.926Z,6.02
2023-05-10T02:04:36.221Z,6.17
2023-05-10T02:05:58.844Z,4.35
2023-05-10T02:07:20.881Z,4.17
2023-05-10T02:08:42.798Z,4.73
2023-05-10T02:10:09.340Z,4.18
2023-05-10T02:11:31.700Z,5.32
2023-05-10T02:12:54.254Z,4.98
2023-05-10T02:14:17.298Z,5.68
2023-05-10T02:15:40.191Z,5.99
2023-05-10T02:18:24.570Z,5.42
2023-05-10T02:19:46.582Z,5.69
2023-05-10T02:21:09.420Z,5.32
2023-05-10T02:22:31.168Z,4.22
2023-05-10T02:23:52.718Z,3.87
2023-05-10T02:25:14.980Z,3.87
2023-05-10T02:26:37.377Z,3.97
2023-05-10T02:27:58.903Z,3.88
2023-05-10T02:29:20.757Z,3.99
2023-05-10T02:30:43.078Z,3.86
2023-05-10T02:32:04.601Z,3.25
2023-05-10T02:33:26.434Z,3.48
2023-05-10T02:34:48.410Z,3.29
2023-05-10T02:36:10.420Z,3.74
2023-05-10T02:37:34.165Z,4.09
2023-05-10T02:38:56.326Z,4.37
2023-05-10T02:40:18.485Z,3.21
2023-05-10T02:41:44.004Z,4.64
2023-05-10T02:43:05.920Z,4.84
2023-05-10T02:44:27.223Z,5.24
2023-05-10T02:45:49.408Z,4.48
2023-05-10T02:47:11.132Z,4.04
2023-05-10T02:48:33.152Z,4.81
2023-05-10T02:49:55.337Z,4.93
2023-05-10T02:51:17.573Z,4.47
2023-05-10T02:52:46.762Z,5.20
2023-05-10T02:54:12.193Z,4.88
2023-05-10T02:55:37.730Z,4.88
2023-05-10T02:57:00.460Z,4.97
2023-05-10T02:58:22.434Z,4.81
2023-05-10T02:59:43.960Z,5.57
2023-05-10T03:01:06.238Z,5.46
2023-05-10T03:02:28.038Z,5.71
2023-05-10T03:03:50.286Z,5.90
2023-05-10T03:05:11.611Z,5.76
2023-05-10T03:06:33.178Z,5.29
2023-05-10T03:07:56.982Z,5.54
2023-05-10T03:09:18.402Z,5.84
2023-05-10T03:12:18.949Z,5.69
2023-05-10T03:13:56.454Z,5.81
2023-05-10T03:16:38.512Z,5.51
2023-05-10T03:18:07.582Z,5.60
2023-05-10T03:19:36.123Z,5.42
2023-05-10T03:21:04.908Z,5.61
2023-05-10T03:22:34.875Z,6.06
2023-05-10T03:24:00.579Z,5.61
2023-05-10T03:25:22.431Z,6.15
2023-05-10T03:26:45.211Z,6.01
2023-05-10T03:28:07.105Z,5.94
2023-05-10T03:29:28.821Z,6.98
2023-05-10T03:30:51.182Z,6.95
2023-05-10T03:32:13.711Z,7.14
2023-05-10T03:33:35.725Z,8.40
2023-05-10T03:36:08.168Z,8.06
2023-05-10T03:38:52.217Z,6.75
2023-05-10T03:40:15.249Z,4.97
2023-05-10T03:41:36.745Z,6.23
2023-05-10T03:43:00.413Z,6.14
2023-05-10T03:44:22.437Z,6.82
2023-05-10T03:45:44.355Z,7.22
2023-05-10T03:47:06.691Z,7.14
2023-05-10T03:48:29.667Z,6.03
2023-05-10T03:49:53.196Z,6.08
2023-05-10T03:51:15.425Z,6.41
2023-05-10T03:52:36.963Z,6.04
2023-05-10T03:53:59.608Z,6.36
2023-05-10T03:55:22.009Z,6.29
2023-05-10T03:56:44.168Z,5.37
2023-05-10T03:58:06.707Z,6.11
2023-05-10T03:59:28.509Z,6.51
2023-05-10T04:00:52.799Z,4.31
2023-05-10T04:02:13.894Z,5.54
2023-05-10T04:03:36.437Z,5.05
2023-05-10T04:04:57.545Z,5.14
2023-05-10T04:06:20.067Z,5.56
2023-05-10T04:07:43.793Z,5.17
2023-05-10T04:09:05.835Z,5.67
2023-05-10T04:10:30.926Z,5.44
2023-05-10T04:11:52.983Z,5.04
2023-05-10T04:13:16.687Z,5.29
2023-05-10T04:14:38.626Z,4.40
2023-05-10T04:16:01.610Z,4.29
2023-05-10T04:18:46.478Z,3.64
2023-05-10T04:21:33.222Z,3.49
2023-05-10T04:22:55.477Z,3.32
2023-05-10T04:24:16.529Z,4.09
2023-05-10T04:25:40.224Z,3.03
2023-05-10T04:27:03.011Z,3.53
2023-05-10T04:28:26.144Z,2.84
2023-05-10T04:29:49.721Z,3.18
2023-05-10T04:31:13.293Z,2.94
2023-05-10T04:32:34.886Z,2.93
2023-05-10T04:33:57.120Z,3.27
2023-05-10T04:36:41.509Z,2.67
2023-05-10T04:38:02.814Z,3.27
2023-05-10T04:39:25.303Z,3.67
2023-05-10T04:40:49.061Z,3.32
2023-05-10T04:42:11.500Z,3.01
2023-05-10T04:43:34.055Z,3.34
2023-05-10T04:44:55.827Z,2.66
2023-05-10T04:46:17.949Z,3.23
2023-05-10T04:47:42.501Z,2.96
2023-05-10T04:49:05.067Z,3.22
2023-05-10T04:50:28.541Z,3.28
2023-05-10T04:51:51.262Z,2.68
2023-05-10T04:53:14.610Z,2.78
2023-05-10T04:54:40.111Z,2.90
2023-05-10T04:56:02.306Z,2.67
2023-05-10T04:57:24.711Z,12.66
2023-05-10T04:58:47.256Z,10.87
2023-05-10T05:00:11.131Z,5.48
2023-05-10T05:01:33.302Z,4.35
2023-05-10T05:02:57.144Z,12.72
2023-05-10T05:04:20.404Z,5.12
2023-05-10T05:07:07.235Z,6.08
2023-05-10T05:08:28.995Z,3.80
2023-05-10T05:09:52.336Z,2.84
2023-05-10T05:11:13.787Z,6.54
2023-05-10T05:12:39.420Z,3.17
2023-05-10T05:14:01.413Z,2.84
2023-05-10T05:15:23.693Z,3.30
2023-05-10T05:16:47.280Z,3.43
2023-05-10T05:18:09.216Z,3.47
2023-05-10T05:19:32.310Z,2.92
2023-05-10T05:20:55.012Z,2.52
2023-05-10T05:22:20.361Z,3.25
2023-05-10T05:23:42.880Z,2.98
2023-05-10T05:25:07.341Z,3.14
2023-05-10T05:26:28.735Z,3.09
2023-05-10T05:27:50.372Z,2.78
2023-05-10T05:29:11.964Z,3.30
2023-05-10T05:30:33.951Z,2.75
2023-05-10T05:31:56.518Z,2.65
2023-05-10T05:33:19.621Z,2.54
2023-05-10T05:34:41.748Z,3.01
2023-05-10T05:37:19.775Z,1.82
2023-05-10T05:38:45.604Z,2.35
2023-05-10T05:40:10.382Z,2.63
2023-05-10T05:41:32.723Z,3.07
2023-05-10T05:42:54.469Z,2.62
2023-05-10T05:44:16.195Z,2.78
2023-05-10T05:45:38.600Z,2.20
2023-05-10T05:47:02.581Z,2.29
2023-05-10T05:48:25.210Z,2.04
2023-05-10T05:51:08.866Z,2.34
2023-05-10T05:52:31.747Z,2.36
2023-05-10T05:53:56.740Z,2.08
2023-05-10T05:55:22.153Z,2.24
2023-05-10T05:56:47.976Z,2.21
2023-05-10T05:58:13.870Z,2.21
2023-05-10T05:59:37.153Z,2.16
2023-05-10T06:01:02.955Z,2.15
2023-05-10T06:02:25.759Z,2.23
2023-05-10T06:03:53.258Z,2.03
2023-05-10T06:05:23.689Z,2.23
2023-05-10T06:06:49.299Z,3.12
2023-05-10T06:08:12.016Z,2.39
2023-05-10T06:10:50.779Z,3.01
2023-05-10T06:12:13.558Z,3.72
2023-05-10T06:13:37.819Z,2.51
2023-05-10T06:15:00.556Z,2.74
2023-05-10T06:16:23.259Z,3.42
2023-05-10T06:17:46.681Z,3.29
2023-05-10T06:19:08.714Z,3.09
2023-05-10T06:20:31.255Z,2.89
2023-05-10T06:21:53.801Z,2.93
2023-05-10T06:23:15.561Z,1.97
2023-05-10T06:24:37.756Z,2.22
2023-05-10T06:26:06.777Z,2.68
2023-05-10T06:27:28.910Z,3.52
2023-05-10T06:28:52.881Z,2.15
2023-05-10T06:30:16.071Z,2.70
2023-05-10T06:33:06.823Z,2.06
2023-05-10T06:34:29.121Z,1.92
2023-05-10T06:35:51.371Z,2.50
2023-05-10T06:37:15.167Z,2.66
2023-05-10T06:38:36.874Z,1.61
2023-05-10T06:39:58.997Z,1.87
2023-05-10T06:41:23.988Z,1.83
2023-05-10T06:42:44.985Z,3.55
2023-05-10T06:44:06.926Z,2.67
2023-05-10T06:45:37.301Z,2.32
2023-05-10T06:46:59.720Z,3.43
2023-05-10T06:48:22.967Z,2.46
2023-05-10T06:49:56.760Z,3.10
2023-05-10T06:51:24.718Z,2.15
2023-05-10T06:52:47.507Z,5.80
2023-05-10T06:54:10.585Z,3.89
2023-05-10T06:55:35.693Z,3.66
2023-05-10T06:56:59.006Z,3.39
2023-05-10T07:02:22.024Z,1.96
2023-05-10T07:03:56.566Z,1.77
2023-05-10T07:07:06.633Z,1.98
2023-05-10T07:08:30.530Z,2.28
2023-05-10T07:09:57.869Z,2.23
2023-05-10T07:11:34.947Z,1.83
2023-05-10T07:12:57.502Z,1.54
2023-05-10T07:14:24.244Z,2.04
2023-05-10T07:16:24.374Z,1.36
2023-05-10T07:17:50.761Z,2.66
2023-05-10T07:19:28.829Z,1.49
2023-05-10T07:20:53.525Z,2.39
2023-05-10T07:22:27.060Z,2.07
2023-05-10T07:23:49.443Z,2.08
2023-05-10T07:25:16.191Z,1.24
2023-05-10T07:26:39.552Z,1.53
2023-05-10T07:28:02.069Z,1.52
2023-05-10T07:29:38.761Z,1.94
2023-05-10T07:31:08.636Z,1.28
2023-05-10T07:32:38.610Z,2.05
2023-05-10T07:34:01.600Z,1.40
2023-05-10T07:35:23.899Z,3.96
2023-05-10T07:36:45.527Z,2.91
2023-05-10T07:38:07.520Z,3.79
2023-05-10T07:39:30.503Z,2.47
2023-05-10T07:40:52.676Z,2.03
2023-05-10T07:42:16.368Z,2.03
2023-05-10T07:43:41.554Z,1.41
2023-05-10T07:46:29.634Z,2.00
2023-05-10T07:47:51.949Z,1.44
2023-05-10T07:49:20.190Z,1.29
2023-05-10T07:50:42.130Z,1.89
2023-05-10T07:52:03.856Z,1.80
2023-05-10T07:53:27.432Z,2.69
2023-05-10T07:54:58.495Z,2.33
2023-05-10T07:56:27.959Z,2.03
2023-05-10T07:57:50.823Z,1.68
2023-05-10T08:00:36.234Z,1.49
2023-05-10T08:01:58.018Z,1.69
2023-05-10T08:03:25.519Z,1.94
2023-05-10T08:04:47.602Z,2.11
2023-05-10T08:06:10.302Z,1.40
2023-05-10T08:07:34.358Z,1.62
2023-05-10T08:08:56.412Z,1.44
2023-05-10T08:10:18.668Z,2.19
2023-05-10T08:11:43.681Z,1.87
2023-05-10T08:13:07.362Z,2.68
2023-05-10T08:14:31.349Z,3.34
2023-05-10T08:15:56.239Z,1.91
2023-05-10T08:17:20.082Z,1.86
2023-05-10T08:18:42.689Z,2.21
2023-05-10T08:20:06.776Z,2.39
2023-05-10T08:21:29.348Z,1.68
2023-05-10T08:22:52.019Z,2.29
2023-05-10T08:26:51.142Z,3.42
2023-05-10T08:28:17.701Z,2.62
2023-05-10T08:29:49.529Z,2.68
2023-05-10T08:31:09.697Z,3.36
2023-05-10T08:32:33.459Z,2.64
2023-05-10T08:33:54.805Z,2.56
2023-05-10T08:35:17.421Z,2.12
2023-05-10T08:36:41.111Z,1.41
2023-05-10T08:38:07.211Z,2.09
2023-05-10T08:39:30.918Z,1.58
2023-05-10T08:42:13.825Z,5.17
2023-05-10T08:45:12.947Z,1.53
2023-05-10T08:46:37.933Z,1.28
2023-05-10T08:48:03.028Z,1.44
2023-05-10T08:49:26.925Z,1.33
2023-05-10T08:50:48.720Z,1.56
2023-05-10T08:52:13.396Z,1.37
2023-05-10T08:53:37.509Z,1.57
2023-05-10T08:55:00.091Z,2.14
2023-05-10T08:56:22.418Z,2.19
2023-05-10T08:57:46.526Z,1.96
2023-05-10T08:59:08.994Z,2.19
2023-05-10T09:00:34.827Z,2.07
2023-05-10T09:03:10.416Z,2.16
2023-05-10T09:04:34.937Z,1.77
2023-05-10T09:07:31.046Z,1.52
2023-05-10T09:08:54.290Z,2.18
2023-05-10T09:10:16.416Z,1.30
2023-05-10T09:11:38.125Z,1.90
2023-05-10T09:13:00.783Z,1.47
2023-05-10T09:14:23.419Z,2.22
2023-05-10T09:18:32.609Z,1.78
2023-05-10T09:20:01.273Z,1.42
2023-05-10T09:21:23.923Z,2.81
2023-05-10T09:22:46.674Z,10.23
2023-05-10T09:24:14.066Z,4.49
2023-05-10T09:25:36.520Z,3.16
2023-05-10T09:27:00.375Z,2.57
2023-05-10T09:28:22.207Z,2.38
2023-05-10T09:29:53.075Z,5.00
2023-05-10T09:31:15.959Z,2.43
2023-05-10T09:32:40.255Z,1.67
2023-05-10T09:34:02.120Z,1.32
2023-05-10T09:35:29.651Z,2.17
2023-05-10T09:36:56.146Z,3.19
2023-05-10T09:38:18.041Z,2.89
2023-05-10T09:39:41.357Z,2.92
2023-05-10T09:41:02.423Z,2.99
2023-05-10T09:42:26.439Z,2.62
2023-05-10T09:43:48.771Z,2.26
2023-05-10T09:45:14.869Z,2.10
2023-05-10T09:46:38.532Z,1.93
2023-05-10T09:48:02.670Z,1.86
2023-05-10T09:49:25.983Z,2.12
2023-05-10T09:50:47.751Z,2.68
2023-05-10T09:52:09.356Z,1.96
2023-05-10T09:53:31.651Z,3.95
2023-05-10T09:54:54.375Z,2.32
2023-05-10T09:56:34.345Z,3.29
2023-05-10T09:58:00.167Z,2.48
2023-05-10T10:00:41.018Z,1.69
2023-05-10T10:02:04.345Z,2.30
2023-05-10T10:03:27.348Z,1.59
2023-05-10T10:04:50.253Z,2.36
2023-05-10T10:06:29.085Z,3.93
2023-05-10T10:09:01.793Z,2.87
2023-05-10T10:10:37.094Z,1.81
2023-05-10T10:12:04.148Z,1.88
2023-05-10T10:13:28.691Z,2.16
2023-05-10T10:14:51.680Z,2.03
2023-05-10T10:16:14.711Z,1.66
2023-05-10T10:17:40.123Z,1.76
2023-05-10T10:19:03.774Z,2.20
2023-05-10T10:20:31.743Z,1.22
2023-05-10T10:21:54.470Z,1.61
2023-05-10T10:23:19.123Z,1.15
2023-05-10T10:24:41.151Z,1.40
2023-05-10T10:26:04.167Z,1.02
2023-05-10T10:28:51.030Z,6.63
2023-05-10T10:30:43.522Z,14.08
2023-05-10T10:32:15.254Z,4.91
2023-05-10T10:33:58.855Z,9.48
2023-05-10T10:35:20.961Z,2.04
2023-05-10T10:36:52.640Z,2.12
2023-05-10T10:39:34.076Z,1.57
2023-05-10T10:42:46.745Z,1.76
2023-05-10T10:44:26.337Z,1.29
2023-05-10T10:46:16.311Z,1.22
2023-05-10T10:47:40.115Z,1.43
2023-05-10T10:49:18.559Z,1.41
2023-05-10T10:50:48.848Z,1.47
2023-05-10T10:52:27.066Z,1.58
2023-05-10T10:53:51.726Z,1.38
2023-05-10T10:56:28.191Z,1.34
2023-05-10T10:57:51.939Z,1.62
2023-05-10T10:59:15.391Z,1.68
2023-05-10T11:00:40.052Z,1.32
2023-05-10T11:02:05.147Z,1.38
2023-05-10T11:03:39.420Z,1.61
2023-05-10T11:05:03.586Z,1.36
2023-05-10T11:06:36.102Z,1.46
2023-05-10T11:08:01.532Z,1.28
2023-05-10T11:09:28.367Z,1.62
2023-05-10T11:11:03.869Z,1.34
2023-05-10T11:12:42.198Z,4.17
2023-05-10T11:14:05.680Z,1.54
2023-05-10T11:15:32.943Z,1.36
2023-05-10T11:16:56.583Z,1.76
2023-05-10T11:20:16.255Z,2.34
2023-05-10T11:21:51.278Z,2.49
2023-05-10T11:23:13.348Z,1.61
2023-05-10T11:24:35.566Z,2.23
2023-05-10T11:25:58.438Z,2.20
2023-05-10T11:27:26.695Z,1.43
2023-05-10T11:28:55.590Z,1.78
2023-05-10T11:31:33.950Z,1.67
2023-05-10T11:32:57.096Z,1.53
2023-05-10T11:34:27.252Z,1.28
2023-05-10T11:35:49.412Z,1.27
2023-05-10T11:37:11.381Z,1.38
2023-05-10T11:38:34.284Z,1.39
2023-05-10T11:39:57.137Z,1.37
2023-05-10T11:41:21.557Z,1.39
2023-05-10T11:42:42.942Z,1.12
2023-05-10T11:44:05.668Z,1.39
2023-05-10T11:45:27.728Z,1.35
2023-05-10T11:46:50.219Z,1.55
2023-05-10T11:48:12.713Z,1.41
2023-05-10T11:49:34.216Z,1.21
2023-05-10T11:50:56.035Z,1.67
2023-05-10T11:52:18.976Z,1.39
2023-05-10T11:53:41.045Z,1.52
2023-05-10T11:56:16.637Z,1.42
2023-05-10T11:57:39.126Z,1.14
2023-05-10T11:59:02.629Z,1.58
2023-05-10T12:00:25.500Z,0.92
2023-05-10T12:01:48.857Z,1.00
2023-05-10T12:04:20.255Z,0.94
2023-05-10T12:05:43.128Z,2.15
2023-05-10T12:07:04.778Z,1.67
2023-05-10T12:08:28.659Z,1.82
2023-05-10T12:10:14.049Z,2.02
2023-05-10T12:11:43.590Z,1.83
2023-05-10T12:13:09.933Z,1.16
2023-05-10T12:14:34.767Z,2.01
2023-05-10T12:15:59.850Z,1.43
2023-05-10T12:17:21.638Z,1.63
2023-05-10T12:18:43.726Z,1.81
2023-05-10T12:20:19.652Z,1.69
2023-05-10T12:21:41.903Z,1.31
2023-05-10T12:23:04.451Z,1.16
2023-05-10T12:24:27.804Z,1.89
2023-05-10T12:25:50.320Z,1.83
2023-05-10T12:27:15.906Z,1.57
2023-05-10T12:28:37.720Z,1.48
2023-05-10T12:30:00.111Z,2.11
2023-05-10T12:31:22.969Z,1.37
2023-05-10T12:32:44.778Z,1.41
2023-05-10T12:34:06.944Z,1.44
2023-05-10T12:35:30.975Z,1.90
2023-05-10T12:38:10.112Z,1.86
2023-05-10T12:39:45.957Z,2.33
2023-05-10T12:41:13.136Z,1.68
2023-05-10T12:42:36.130Z,2.23
2023-05-10T12:43:59.514Z,1.38
2023-05-10T12:45:21.755Z,1.47
2023-05-10T12:46:50.371Z,1.92
2023-05-10T12:49:55.463Z,1.46
2023-05-10T12:51:30.231Z,1.58
2023-05-10T12:52:56.159Z,1.45
2023-05-10T12:54:29.895Z,1.54
2023-05-10T12:55:56.628Z,1.54
2023-05-10T12:57:22.893Z,1.78
2023-05-10T12:58:48.051Z,1.51
2023-05-10T13:01:25.239Z,1.75
2023-05-10T13:02:47.158Z,1.34
2023-05-10T13:04:09.966Z,1.31
2023-05-10T13:16:50.459Z,1.61
2023-05-10T13:18:15.187Z,3.71
2023-05-10T13:19:38.292Z,1.89
2023-05-10T13:20:59.829Z,2.67
2023-05-10T13:22:39.187Z,1.68
2023-05-10T13:23:50.810Z,1.53
2023-05-10T13:25:15.079Z,1.97
2023-05-10T13:26:39.660Z,2.87
2023-05-10T13:28:01.281Z,1.64
2023-05-10T13:29:23.518Z,1.65
2023-05-10T13:30:47.998Z,1.31
2023-05-10T13:32:12.352Z,1.71
2023-05-10T13:33:34.157Z,1.44
2023-05-10T13:34:56.999Z,1.63
2023-05-10T13:37:42.515Z,1.95
2023-05-10T13:39:04.566Z,1.27
2023-05-10T13:40:27.293Z,2.69
2023-05-10T13:41:48.918Z,2.29
2023-05-10T13:43:11.454Z,3.12
2023-05-10T13:44:33.667Z,2.66
2023-05-10T13:45:55.213Z,4.87
2023-05-10T13:47:19.517Z,1.88
2023-05-10T13:48:41.832Z,1.51
2023-05-10T13:50:03.742Z,2.61
2023-05-10T13:51:25.860Z,2.69
2023-05-10T13:52:48.109Z,4.07
2023-05-10T13:54:13.270Z,3.58
2023-05-10T13:57:15.599Z,5.25
2023-05-10T13:58:40.226Z,4.61
2023-05-10T14:00:01.945Z,1.73
2023-05-10T14:01:25.937Z,1.65
2023-05-10T14:02:47.839Z,12.04
2023-05-10T14:04:09.872Z,7.13
2023-05-10T14:05:34.063Z,4.36
2023-05-10T14:06:56.617Z,1.50
2023-05-10T14:08:18.584Z,1.36
2023-05-10T14:09:40.633Z,1.87
2023-05-10T14:11:04.146Z,4.21
2023-05-10T14:12:26.862Z,3.34
2023-05-10T14:13:48.643Z,1.54
2023-05-10T14:15:12.178Z,1.41
2023-05-10T14:16:34.020Z,1.33
2023-05-10T14:17:56.850Z,2.06
2023-05-10T14:19:19.416Z,1.74
2023-05-10T14:20:41.632Z,1.81
2023-05-10T14:22:03.966Z,2.50
2023-05-10T14:23:26.099Z,2.14
2023-05-10T14:24:49.331Z,1.08
2023-05-10T14:26:12.647Z,1.16
2023-05-10T14:27:34.935Z,1.72
2023-05-10T14:28:57.398Z,1.35
2023-05-10T14:30:21.684Z,1.11
2023-05-10T14:31:43.627Z,1.01
2023-05-10T14:33:06.058Z,1.22
2023-05-10T14:34:28.020Z,2.72
2023-05-10T14:35:49.568Z,3.81
2023-05-10T14:37:12.317Z,2.24
2023-05-10T14:38:33.853Z,1.39
2023-05-10T14:39:55.424Z,2.75
2023-05-10T14:41:16.546Z,1.78
2023-05-10T14:42:38.012Z,1.85
2023-05-10T14:43:59.920Z,2.48
2023-05-10T14:45:21.594Z,1.14
2023-05-10T14:46:43.801Z,0.92
2023-05-10T14:48:06.227Z,0.87
2023-05-10T14:49:28.010Z,1.02
2023-05-10T14:50:50.325Z,0.74
2023-05-10T14:53:51.994Z,3.65
2023-05-10T14:55:15.755Z,2.11
2023-05-10T14:56:38.483Z,1.24
2023-05-10T14:59:25.431Z,1.34
2023-05-10T15:00:48.999Z,1.43
2023-05-10T15:02:11.860Z,1.43
2023-05-10T15:03:34.538Z,2.10
2023-05-10T15:04:56.406Z,4.04
2023-05-10T15:06:20.478Z,1.43
2023-05-10T15:07:43.917Z,1.64
2023-05-10T15:09:07.080Z,1.28
2023-05-10T15:11:49.940Z,1.37
2023-05-10T15:15:48.743Z,1.47
2023-05-10T15:17:14.043Z,1.32
2023-05-10T15:18:35.878Z,1.16
2023-05-10T15:19:57.977Z,1.64
2023-05-10T15:21:20.009Z,1.98
2023-05-10T15:22:44.600Z,1.55
2023-05-10T15:24:09.660Z,1.69
2023-05-10T15:25:31.785Z,1.42
2023-05-10T15:26:55.250Z,1.49
2023-05-10T15:28:19.484Z,4.06
2023-05-10T15:29:44.548Z,1.27
2023-05-10T15:31:06.372Z,1.24
2023-05-10T15:32:28.047Z,1.70
2023-05-10T15:33:49.684Z,1.12
2023-05-10T15:35:13.670Z,1.01
2023-05-10T15:36:36.401Z,1.37
2023-05-10T15:37:58.086Z,0.97
2023-05-10T15:39:20.123Z,1.56
2023-05-10T15:40:42.031Z,3.01
2023-05-10T15:42:05.005Z,9.07
2023-05-10T15:44:53.238Z,4.14
2023-05-10T15:46:18.086Z,1.86
2023-05-10T15:47:40.714Z,1.29
2023-05-10T15:49:04.577Z,1.87
2023-05-10T15:50:26.023Z,1.25
2023-05-10T15:51:55.247Z,1.24
2023-05-10T15:53:17.237Z,1.18
2023-05-10T15:54:39.986Z,1.41
2023-05-10T15:56:02.227Z,1.33
2023-05-10T15:57:26.191Z,1.64
2023-05-10T15:58:48.613Z,1.34
2023-05-10T16:00:12.637Z,1.33
2023-05-10T16:01:34.814Z,1.47
2023-05-10T16:02:57.478Z,1.22
2023-05-10T16:04:21.590Z,1.39
2023-05-10T16:05:43.715Z,1.31
2023-05-10T16:07:05.726Z,1.32
2023-05-10T16:08:28.525Z,1.34
2023-05-10T16:09:49.922Z,1.41
2023-05-10T16:12:22.235Z,1.47
2023-05-10T16:13:44.475Z,1.32
2023-05-10T16:15:08.670Z,0.98
2023-05-10T16:16:35.390Z,1.07
2023-05-10T16:17:58.629Z,1.12
2023-05-10T16:20:44.145Z,1.51
2023-05-10T16:22:05.567Z,1.42
2023-05-10T16:23:27.537Z,1.39
2023-05-10T16:24:50.342Z,1.26
2023-05-10T16:26:13.452Z,1.20
2023-05-10T16:27:35.872Z,1.09
2023-05-10T16:28:58.459Z,1.47
2023-05-10T16:30:24.006Z,1.22
2023-05-10T16:31:46.023Z,1.41
2023-05-10T16:33:08.050Z,1.73
2023-05-10T16:34:30.174Z,1.59
2023-05-10T16:35:52.878Z,1.47
2023-05-10T16:37:16.395Z,1.28
2023-05-10T16:38:37.471Z,2.35
2023-05-10T16:40:03.519Z,1.22
2023-05-10T16:41:25.824Z,3.18
2023-05-10T16:42:47.390Z,1.71
2023-05-10T16:44:08.740Z,1.66
2023-05-10T16:45:33.246Z,1.57
2023-05-10T16:46:56.309Z,1.20
2023-05-10T16:48:20.597Z,1.39
2023-05-10T16:49:42.485Z,1.22
2023-05-10T16:51:04.417Z,1.20
2023-05-10T16:52:28.120Z,1.22
2023-05-10T16:53:49.391Z,1.50
2023-05-10T16:55:11.200Z,1.46
2023-05-10T16:56:34.656Z,1.42
2023-05-10T16:57:57.419Z,1.52
2023-05-10T16:59:21.468Z,1.55
2023-05-10T17:00:43.399Z,1.73
2023-05-10T17:02:09.049Z,2.27
2023-05-10T17:03:31.516Z,10.76
2023-05-10T17:04:56.135Z,4.91
2023-05-10T17:06:18.243Z,3.63
2023-05-10T17:07:40.885Z,1.94
2023-05-10T17:09:02.092Z,1.88
2023-05-10T17:10:24.740Z,3.33
2023-05-10T17:11:46.772Z,1.77
2023-05-10T17:13:11.259Z,1.83
2023-05-10T17:14:32.491Z,1.82
2023-05-10T17:15:55.527Z,1.93
2023-05-10T17:17:17.974Z,1.38
2023-05-10T17:18:43.424Z,1.12
2023-05-10T17:20:07.992Z,1.98
2023-05-10T17:21:30.296Z,1.72
2023-05-10T17:22:52.053Z,1.67
2023-05-10T17:24:15.601Z,2.08
2023-05-10T17:25:37.932Z,2.95
2023-05-10T17:26:59.655Z,2.67
2023-05-10T17:28:20.759Z,3.24
2023-05-10T17:29:42.840Z,2.85
2023-05-10T17:31:05.303Z,2.93
2023-05-10T17:32:27.898Z,3.12
2023-05-10T17:33:50.638Z,3.74
2023-05-10T17:35:13.503Z,3.28
2023-05-10T17:36:36.066Z,2.46
2023-05-10T17:37:58.170Z,3.02
2023-05-10T17:39:20.216Z,2.78
2023-05-10T17:40:43.046Z,2.85
2023-05-10T17:42:04.937Z,2.43
2023-05-10T17:43:30.095Z,1.40
2023-05-10T17:44:52.089Z,1.81
2023-05-10T17:46:15.230Z,2.04
2023-05-10T17:47:37.736Z,1.74
2023-05-10T17:48:59.525Z,1.64
2023-05-10T17:50:22.538Z,1.58
2023-05-10T17:51:43.907Z,1.52
2023-05-10T17:53:08.895Z,1.57
2023-05-10T17:54:30.274Z,1.87
2023-05-10T17:55:52.692Z,1.68
2023-05-10T17:57:15.673Z,2.04
2023-05-10T17:58:38.082Z,1.48
2023-05-10T18:00:00.544Z,1.81
2023-05-10T18:01:23.291Z,1.72
2023-05-10T18:02:45.475Z,1.77
2023-05-10T18:04:07.696Z,1.81
2023-05-10T18:05:29.581Z,1.27
2023-05-10T18:06:51.932Z,1.59
2023-05-10T18:08:13.975Z,2.12
2023-05-10T18:09:36.623Z,2.11
2023-05-10T18:10:58.620Z,2.33
2023-05-10T18:12:20.281Z,2.12
2023-05-10T18:13:42.680Z,2.06
2023-05-10T18:15:06.428Z,1.62
2023-05-10T18:16:29.012Z,2.44
2023-05-10T18:17:51.426Z,1.92
2023-05-10T18:19:13.910Z,1.99
2023-05-10T18:20:37.389Z,1.84
2023-05-10T18:21:59.279Z,1.91
2023-05-10T18:23:21.206Z,1.99
2023-05-10T18:24:43.131Z,1.87
2023-05-10T18:26:05.174Z,1.89
2023-05-10T18:27:27.216Z,1.78
2023-05-10T18:28:48.821Z,1.91
2023-05-10T18:30:15.037Z,1.67
2023-05-10T18:31:36.798Z,2.26
2023-05-10T18:32:59.481Z,1.81
2023-05-10T18:34:21.384Z,1.86
2023-05-10T18:35:43.303Z,2.06
2023-05-10T18:37:05.511Z,1.89
2023-05-10T18:38:27.693Z,1.92
2023-05-10T18:39:51.940Z,2.03
2023-05-10T18:41:15.270Z,2.09
2023-05-10T18:42:38.293Z,2.17
2023-05-10T18:44:00.582Z,2.12
2023-05-10T18:45:22.188Z,1.42
2023-05-10T18:46:45.572Z,1.80
2023-05-10T18:48:07.803Z,2.03
2023-05-10T18:49:29.726Z,2.43
2023-05-10T18:50:53.885Z,2.42
2023-05-10T18:52:17.679Z,2.14
2023-05-10T18:53:39.154Z,2.62
2023-05-10T18:56:24.643Z,2.17
2023-05-10T18:57:46.831Z,1.97
2023-05-10T18:59:08.297Z,2.19
2023-05-10T19:00:30.375Z,2.68
2023-05-10T19:01:54.298Z,2.58
2023-05-10T19:03:16.777Z,2.53
2023-05-10T19:04:38.957Z,2.51
2023-05-10T19:06:00.110Z,2.39
2023-05-10T19:07:21.853Z,2.54
2023-05-10T19:09:54.914Z,2.66
2023-05-10T19:11:17.515Z,2.91
2023-05-10T19:12:39.490Z,2.62
2023-05-10T19:14:01.541Z,2.64
2023-05-10T19:15:23.688Z,2.91
2023-05-10T19:16:45.103Z,2.99
2023-05-10T19:18:10.500Z,3.28
2023-05-10T19:19:33.038Z,3.39
2023-05-10T19:20:56.753Z,3.31
2023-05-10T19:22:31.963Z,3.51
2023-05-10T19:23:44.084Z,3.51
2023-05-10T19:25:10.445Z,3.05
2023-05-10T19:26:36.374Z,3.87
2023-05-10T19:28:01.053Z,3.36
2023-05-10T19:29:23.240Z,3.37
2023-05-10T19:30:45.557Z,3.64
2023-05-10T19:32:07.698Z,3.36
2023-05-10T19:33:29.621Z,4.33
2023-05-10T19:34:53.242Z,3.78
2023-05-10T19:36:15.023Z,2.99
2023-05-10T19:37:38.461Z,3.51
2023-05-10T19:39:00.082Z,3.76
2023-05-10T19:40:23.453Z,3.77
2023-05-10T19:41:49.146Z,3.58
2023-05-10T19:43:10.508Z,4.61
2023-05-10T19:44:33.536Z,3.22
2023-05-10T19:46:01.237Z,3.40
2023-05-10T19:47:23.843Z,3.23
2023-05-10T19:48:51.125Z,3.02
2023-05-10T19:50:14.420Z,3.46
2023-05-10T19:51:36.112Z,3.27
2023-05-10T19:52:57.784Z,3.14
2023-05-10T19:54:19.613Z,3.64
2023-05-10T19:55:41.491Z,4.21
2023-05-10T19:57:03.690Z,4.19
2023-05-10T19:58:26.881Z,3.32
2023-05-10T20:01:10.564Z,3.21
2023-05-10T20:02:32.925Z,2.59
2023-05-10T20:03:54.923Z,3.71
2023-05-10T20:05:17.776Z,3.39
2023-05-10T20:08:02.917Z,4.71